sensor_id;sensor_type;location;lat;lon;timestamp;temperature;humidity
70534;SHT31;58088;51.186;17.130;2022-12-08T00:01:24;3.32;77.56
70534;SHT31;58088;51.186;17.130;2022-12-08T00:03:53;3.36;77.49
70534;SHT31;58088;51.186;17.130;2022-12-08T00:06:28;3.37;77.43
70534;SHT31;58088;51.186;17.130;2022-12-08T00:09:20;3.33;77.43
70534;SHT31;58088;51.186;17.130;2022-12-08T00:11:58;3.29;77.54
70534;SHT31;58088;51.186;17.130;2022-12-08T00:14:29;3.29;77.63
70534;SHT31;58088;51.186;17.130;2022-12-08T00:17:04;3.28;77.69
70534;SHT31;58088;51.186;17.130;2022-12-08T00:19:34;3.30;77.75
70534;SHT31;58088;51.186;17.130;2022-12-08T00:22:01;3.32;77.77
70534;SHT31;58088;51.186;17.130;2022-12-08T00:24:29;3.33;77.79
70534;SHT31;58088;51.186;17.130;2022-12-08T00:26:59;3.35;77.76
70534;SHT31;58088;51.186;17.130;2022-12-08T00:29:26;3.37;77.69
70534;SHT31;58088;51.186;17.130;2022-12-08T00:31:53;3.37;77.67
70534;SHT31;58088;51.186;17.130;2022-12-08T00:34:19;3.38;77.63
70534;SHT31;58088;51.186;17.130;2022-12-08T00:36:46;3.40;77.61
70534;SHT31;58088;51.186;17.130;2022-12-08T00:39:12;3.42;77.61
70534;SHT31;58088;51.186;17.130;2022-12-08T00:41:40;3.44;77.60
70534;SHT31;58088;51.186;17.130;2022-12-08T00:44:25;3.47;77.60
70534;SHT31;58088;51.186;17.130;2022-12-08T00:46:51;3.51;77.54
70534;SHT31;58088;51.186;17.130;2022-12-08T00:49:18;3.53;77.50
70534;SHT31;58088;51.186;17.130;2022-12-08T00:51:44;3.55;77.50
70534;SHT31;58088;51.186;17.130;2022-12-08T00:54:11;3.58;77.50
70534;SHT31;58088;51.186;17.130;2022-12-08T00:56:37;3.58;77.50
70534;SHT31;58088;51.186;17.130;2022-12-08T00:59:04;3.60;77.51
70534;SHT31;58088;51.186;17.130;2022-12-08T01:01:32;3.62;77.53
70534;SHT31;58088;51.186;17.130;2022-12-08T01:04:06;3.64;77.59
70534;SHT31;58088;51.186;17.130;2022-12-08T01:06:37;3.67;77.60
70534;SHT31;58088;51.186;17.130;2022-12-08T01:09:05;3.68;77.56
70534;SHT31;58088;51.186;17.130;2022-12-08T01:11:32;3.68;77.58
70534;SHT31;58088;51.186;17.130;2022-12-08T01:13:59;3.69;77.59
70534;SHT31;58088;51.186;17.130;2022-12-08T01:16:27;3.72;77.60
70534;SHT31;58088;51.186;17.130;2022-12-08T01:18:57;3.77;77.67
70534;SHT31;58088;51.186;17.130;2022-12-08T01:21:24;3.82;77.70
70534;SHT31;58088;51.186;17.130;2022-12-08T01:23:52;3.86;77.71
70534;SHT31;58088;51.186;17.130;2022-12-08T01:26:19;3.92;77.78
70534;SHT31;58088;51.186;17.130;2022-12-08T01:28:46;3.99;77.81
70534;SHT31;58088;51.186;17.130;2022-12-08T01:31:14;4.07;77.75
70534;SHT31;58088;51.186;17.130;2022-12-08T01:33:43;4.13;77.61
70534;SHT31;58088;51.186;17.130;2022-12-08T01:36:19;4.17;77.56
70534;SHT31;58088;51.186;17.130;2022-12-08T01:39:13;4.20;77.32
70534;SHT31;58088;51.186;17.130;2022-12-08T01:41:42;4.19;77.19
70534;SHT31;58088;51.186;17.130;2022-12-08T01:46:38;4.26;77.15
70534;SHT31;58088;51.186;17.130;2022-12-08T01:49:10;4.31;77.20
70534;SHT31;58088;51.186;17.130;2022-12-08T01:54:52;4.35;77.10
70534;SHT31;58088;51.186;17.130;2022-12-08T01:57:46;4.36;77.13
70534;SHT31;58088;51.186;17.130;2022-12-08T02:00:17;4.39;77.13
70534;SHT31;58088;51.186;17.130;2022-12-08T02:05:29;4.44;76.94
70534;SHT31;58088;51.186;17.130;2022-12-08T02:08:04;4.44;76.90
70534;SHT31;58088;51.186;17.130;2022-12-08T02:10:36;4.43;76.79
70534;SHT31;58088;51.186;17.130;2022-12-08T02:13:07;4.41;76.66
70534;SHT31;58088;51.186;17.130;2022-12-08T02:36:58;4.50;76.18
70534;SHT31;58088;51.186;17.130;2022-12-08T02:39:39;4.54;76.14
70534;SHT31;58088;51.186;17.130;2022-12-08T02:42:22;4.54;76.13
70534;SHT31;58088;51.186;17.130;2022-12-08T02:45:18;4.56;76.10
70534;SHT31;58088;51.186;17.130;2022-12-08T02:47:49;4.62;76.10
70534;SHT31;58088;51.186;17.130;2022-12-08T02:50:17;4.70;76.19
70534;SHT31;58088;51.186;17.130;2022-12-08T02:52:44;4.78;76.07
70534;SHT31;58088;51.186;17.130;2022-12-08T02:55:24;4.83;75.99
70534;SHT31;58088;51.186;17.130;2022-12-08T02:58:23;4.85;75.84
70534;SHT31;58088;51.186;17.130;2022-12-08T03:06:31;4.81;75.64
70534;SHT31;58088;51.186;17.130;2022-12-08T03:09:17;4.80;75.54
70534;SHT31;58088;51.186;17.130;2022-12-08T03:12:01;4.77;75.50
70534;SHT31;58088;51.186;17.130;2022-12-08T03:14:43;4.75;75.50
70534;SHT31;58088;51.186;17.130;2022-12-08T03:17:14;4.71;75.44
70534;SHT31;58088;51.186;17.130;2022-12-08T03:19:45;4.70;75.50
70534;SHT31;58088;51.186;17.130;2022-12-08T03:22:14;4.72;75.49
70534;SHT31;58088;51.186;17.130;2022-12-08T03:24:45;4.72;75.45
70534;SHT31;58088;51.186;17.130;2022-12-08T03:27:14;4.67;75.39
70534;SHT31;58088;51.186;17.130;2022-12-08T03:29:46;4.61;75.40
70534;SHT31;58088;51.186;17.130;2022-12-08T03:35:16;4.60;75.50
70534;SHT31;58088;51.186;17.130;2022-12-08T03:37:49;4.62;75.50
70534;SHT31;58088;51.186;17.130;2022-12-08T03:40:16;4.63;75.49
70534;SHT31;58088;51.186;17.130;2022-12-08T03:42:45;4.62;75.50
70534;SHT31;58088;51.186;17.130;2022-12-08T03:45:11;4.61;75.53
70534;SHT31;58088;51.186;17.130;2022-12-08T03:47:37;4.57;75.63
70534;SHT31;58088;51.186;17.130;2022-12-08T03:50:04;4.61;75.70
70534;SHT31;58088;51.186;17.130;2022-12-08T03:52:31;4.61;75.66
70534;SHT31;58088;51.186;17.130;2022-12-08T03:54:57;4.58;75.69
70534;SHT31;58088;51.186;17.130;2022-12-08T03:57:23;4.59;75.70
70534;SHT31;58088;51.186;17.130;2022-12-08T03:59:49;4.62;75.68
70534;SHT31;58088;51.186;17.130;2022-12-08T04:02:15;4.60;75.63
70534;SHT31;58088;51.186;17.130;2022-12-08T04:04:42;4.57;75.69
70534;SHT31;58088;51.186;17.130;2022-12-08T04:07:09;4.54;75.66
70534;SHT31;58088;51.186;17.130;2022-12-08T04:09:35;4.54;75.70
70534;SHT31;58088;51.186;17.130;2022-12-08T04:12:01;4.53;75.68
70534;SHT31;58088;51.186;17.130;2022-12-08T04:14:27;4.51;75.70
70534;SHT31;58088;51.186;17.130;2022-12-08T04:16:53;4.48;75.70
70534;SHT31;58088;51.186;17.130;2022-12-08T04:19:19;4.40;75.71
70534;SHT31;58088;51.186;17.130;2022-12-08T04:21:46;4.34;75.79
70534;SHT31;58088;51.186;17.130;2022-12-08T04:24:12;4.34;75.88
70534;SHT31;58088;51.186;17.130;2022-12-08T04:26:38;4.36;75.88
70534;SHT31;58088;51.186;17.130;2022-12-08T04:29:04;4.38;75.88
70534;SHT31;58088;51.186;17.130;2022-12-08T04:31:31;4.37;75.89
70534;SHT31;58088;51.186;17.130;2022-12-08T04:33:57;4.35;75.90
70534;SHT31;58088;51.186;17.130;2022-12-08T04:36:23;4.32;75.90
70534;SHT31;58088;51.186;17.130;2022-12-08T04:38:49;4.32;75.90
70534;SHT31;58088;51.186;17.130;2022-12-08T04:41:15;4.29;75.90
70534;SHT31;58088;51.186;17.130;2022-12-08T04:43:41;4.28;75.91
70534;SHT31;58088;51.186;17.130;2022-12-08T04:46:09;4.26;75.90
70534;SHT31;58088;51.186;17.130;2022-12-08T04:48:35;4.21;75.90
70534;SHT31;58088;51.186;17.130;2022-12-08T04:51:03;4.18;75.91
70534;SHT31;58088;51.186;17.130;2022-12-08T04:53:30;4.15;75.99
70534;SHT31;58088;51.186;17.130;2022-12-08T04:55:57;4.14;76.02
70534;SHT31;58088;51.186;17.130;2022-12-08T04:58:23;4.16;76.09
70534;SHT31;58088;51.186;17.130;2022-12-08T05:00:49;4.20;76.17
70534;SHT31;58088;51.186;17.130;2022-12-08T05:03:15;4.24;76.20
70534;SHT31;58088;51.186;17.130;2022-12-08T05:05:42;4.24;76.14
70534;SHT31;58088;51.186;17.130;2022-12-08T05:08:09;4.22;76.10
70534;SHT31;58088;51.186;17.130;2022-12-08T05:10:36;4.20;76.11
70534;SHT31;58088;51.186;17.130;2022-12-08T05:13:03;4.20;76.20
70534;SHT31;58088;51.186;17.130;2022-12-08T05:15:29;4.20;76.21
70534;SHT31;58088;51.186;17.130;2022-12-08T05:17:55;4.22;76.19
70534;SHT31;58088;51.186;17.130;2022-12-08T05:20:22;4.19;76.13
70534;SHT31;58088;51.186;17.130;2022-12-08T05:22:48;4.17;76.29
70534;SHT31;58088;51.186;17.130;2022-12-08T05:25:14;4.19;76.30
70534;SHT31;58088;51.186;17.130;2022-12-08T05:27:40;4.20;76.31
70534;SHT31;58088;51.186;17.130;2022-12-08T05:30:07;4.18;76.30
70534;SHT31;58088;51.186;17.130;2022-12-08T05:32:33;4.18;76.39
70534;SHT31;58088;51.186;17.130;2022-12-08T05:35:00;4.18;76.40
70534;SHT31;58088;51.186;17.130;2022-12-08T05:37:26;4.12;76.42
70534;SHT31;58088;51.186;17.130;2022-12-08T05:39:52;4.09;76.49
70534;SHT31;58088;51.186;17.130;2022-12-08T05:42:18;4.05;76.50
70534;SHT31;58088;51.186;17.130;2022-12-08T05:44:45;4.02;76.50
70534;SHT31;58088;51.186;17.130;2022-12-08T05:47:11;3.99;76.51
70534;SHT31;58088;51.186;17.130;2022-12-08T05:49:37;3.99;76.51
70534;SHT31;58088;51.186;17.130;2022-12-08T05:52:03;3.96;76.59
70534;SHT31;58088;51.186;17.130;2022-12-08T05:54:29;3.94;76.60
70534;SHT31;58088;51.186;17.130;2022-12-08T05:56:55;3.92;76.60
70534;SHT31;58088;51.186;17.130;2022-12-08T05:59:21;3.89;76.60
70534;SHT31;58088;51.186;17.130;2022-12-08T06:01:48;3.85;76.62
70534;SHT31;58088;51.186;17.130;2022-12-08T06:04:14;3.85;76.64
70534;SHT31;58088;51.186;17.130;2022-12-08T06:06:40;3.84;76.62
70534;SHT31;58088;51.186;17.130;2022-12-08T06:09:06;3.81;76.60
70534;SHT31;58088;51.186;17.130;2022-12-08T06:11:34;3.79;76.60
70534;SHT31;58088;51.186;17.130;2022-12-08T06:14:00;3.77;76.60
70534;SHT31;58088;51.186;17.130;2022-12-08T06:16:28;3.74;76.60
70534;SHT31;58088;51.186;17.130;2022-12-08T06:18:55;3.70;76.60
70534;SHT31;58088;51.186;17.130;2022-12-08T06:21:22;3.66;76.64
70534;SHT31;58088;51.186;17.130;2022-12-08T06:23:49;3.62;76.68
70534;SHT31;58088;51.186;17.130;2022-12-08T06:26:18;3.60;76.73
70534;SHT31;58088;51.186;17.130;2022-12-08T06:28:45;3.58;76.78
70534;SHT31;58088;51.186;17.130;2022-12-08T06:31:14;3.56;76.80
70534;SHT31;58088;51.186;17.130;2022-12-08T06:33:49;3.54;76.85
70534;SHT31;58088;51.186;17.130;2022-12-08T06:36:16;3.54;76.87
70534;SHT31;58088;51.186;17.130;2022-12-08T06:38:45;3.53;76.90
70534;SHT31;58088;51.186;17.130;2022-12-08T06:41:13;3.53;76.91
70534;SHT31;58088;51.186;17.130;2022-12-08T06:43:40;3.51;76.90
70534;SHT31;58088;51.186;17.130;2022-12-08T06:46:08;3.50;76.94
70534;SHT31;58088;51.186;17.130;2022-12-08T06:48:38;3.50;77.00
70534;SHT31;58088;51.186;17.130;2022-12-08T06:51:09;3.48;77.00
70534;SHT31;58088;51.186;17.130;2022-12-08T06:53:39;3.46;77.00
70534;SHT31;58088;51.186;17.130;2022-12-08T06:56:07;3.45;77.00
70534;SHT31;58088;51.186;17.130;2022-12-08T06:58:35;3.45;77.05
70534;SHT31;58088;51.186;17.130;2022-12-08T07:01:03;3.46;77.10
70534;SHT31;58088;51.186;17.130;2022-12-08T07:03:37;3.48;77.10
70534;SHT31;58088;51.186;17.130;2022-12-08T07:06:05;3.47;77.10
70534;SHT31;58088;51.186;17.130;2022-12-08T07:08:32;3.51;77.10
70534;SHT31;58088;51.186;17.130;2022-12-08T07:10:59;3.53;77.09
70534;SHT31;58088;51.186;17.130;2022-12-08T07:13:33;3.54;77.05
70534;SHT31;58088;51.186;17.130;2022-12-08T07:15:59;3.57;77.04
70534;SHT31;58088;51.186;17.130;2022-12-08T07:18:25;3.59;77.07
70534;SHT31;58088;51.186;17.130;2022-12-08T07:20:51;3.63;77.03
70534;SHT31;58088;51.186;17.130;2022-12-08T07:23:18;3.66;77.00
70534;SHT31;58088;51.186;17.130;2022-12-08T07:25:44;3.69;77.00
70534;SHT31;58088;51.186;17.130;2022-12-08T07:28:10;3.70;77.00
70534;SHT31;58088;51.186;17.130;2022-12-08T07:30:37;3.72;76.98
70534;SHT31;58088;51.186;17.130;2022-12-08T07:33:04;3.74;76.98
70534;SHT31;58088;51.186;17.130;2022-12-08T07:35:31;3.77;76.96
70534;SHT31;58088;51.186;17.130;2022-12-08T07:37:57;3.82;76.93
70534;SHT31;58088;51.186;17.130;2022-12-08T07:40:23;3.84;76.88
70534;SHT31;58088;51.186;17.130;2022-12-08T07:42:50;3.84;76.87
70534;SHT31;58088;51.186;17.130;2022-12-08T07:45:16;3.86;76.88
70534;SHT31;58088;51.186;17.130;2022-12-08T07:47:42;3.90;76.83
70534;SHT31;58088;51.186;17.130;2022-12-08T07:50:08;3.91;76.80
70534;SHT31;58088;51.186;17.130;2022-12-08T07:52:35;3.95;76.79
70534;SHT31;58088;51.186;17.130;2022-12-08T07:55:01;3.98;76.75
70534;SHT31;58088;51.186;17.130;2022-12-08T07:57:27;4.03;76.70
70534;SHT31;58088;51.186;17.130;2022-12-08T07:59:54;4.09;76.64
70534;SHT31;58088;51.186;17.130;2022-12-08T08:02:20;4.12;76.68
70534;SHT31;58088;51.186;17.130;2022-12-08T08:04:48;4.18;76.62
70534;SHT31;58088;51.186;17.130;2022-12-08T08:07:15;4.22;76.59
70534;SHT31;58088;51.186;17.130;2022-12-08T08:09:42;4.25;76.53
70534;SHT31;58088;51.186;17.130;2022-12-08T08:12:08;4.27;76.49
70534;SHT31;58088;51.186;17.130;2022-12-08T08:14:35;4.32;76.45
70534;SHT31;58088;51.186;17.130;2022-12-08T08:17:01;4.36;76.40
70534;SHT31;58088;51.186;17.130;2022-12-08T08:19:27;4.43;76.36
70534;SHT31;58088;51.186;17.130;2022-12-08T08:21:54;4.50;76.39
70534;SHT31;58088;51.186;17.130;2022-12-08T08:24:20;4.57;76.30
70534;SHT31;58088;51.186;17.130;2022-12-08T08:26:48;4.65;76.24
70534;SHT31;58088;51.186;17.130;2022-12-08T08:29:15;4.72;76.14
70534;SHT31;58088;51.186;17.130;2022-12-08T08:31:41;4.78;76.05
70534;SHT31;58088;51.186;17.130;2022-12-08T08:34:07;4.86;76.01
70534;SHT31;58088;51.186;17.130;2022-12-08T08:36:34;4.94;75.92
70534;SHT31;58088;51.186;17.130;2022-12-08T08:39:00;5.01;75.86
70534;SHT31;58088;51.186;17.130;2022-12-08T08:41:27;5.07;75.65
70534;SHT31;58088;51.186;17.130;2022-12-08T08:43:53;5.12;75.52
70534;SHT31;58088;51.186;17.130;2022-12-08T08:46:20;5.18;75.45
70534;SHT31;58088;51.186;17.130;2022-12-08T08:48:46;5.26;75.35
70534;SHT31;58088;51.186;17.130;2022-12-08T08:51:13;5.34;75.31
70534;SHT31;58088;51.186;17.130;2022-12-08T08:53:40;5.40;75.21
70534;SHT31;58088;51.186;17.130;2022-12-08T08:56:10;5.44;75.04
70534;SHT31;58088;51.186;17.130;2022-12-08T08:58:40;5.49;74.99
70534;SHT31;58088;51.186;17.130;2022-12-08T09:01:07;5.53;74.79
70534;SHT31;58088;51.186;17.130;2022-12-08T09:03:33;5.59;74.62
70534;SHT31;58088;51.186;17.130;2022-12-08T09:05:59;5.65;74.44
70534;SHT31;58088;51.186;17.130;2022-12-08T09:08:25;5.71;74.32
70534;SHT31;58088;51.186;17.130;2022-12-08T09:10:52;5.81;74.32
70534;SHT31;58088;51.186;17.130;2022-12-08T09:13:19;5.88;74.20
70534;SHT31;58088;51.186;17.130;2022-12-08T09:15:45;5.94;74.10
70534;SHT31;58088;51.186;17.130;2022-12-08T09:18:11;5.97;73.94
70534;SHT31;58088;51.186;17.130;2022-12-08T09:20:37;6.02;73.81
70534;SHT31;58088;51.186;17.130;2022-12-08T09:23:04;6.08;73.57
70534;SHT31;58088;51.186;17.130;2022-12-08T09:25:30;6.13;73.34
70534;SHT31;58088;51.186;17.130;2022-12-08T09:27:56;6.20;73.26
70534;SHT31;58088;51.186;17.130;2022-12-08T09:30:23;6.25;73.09
70534;SHT31;58088;51.186;17.130;2022-12-08T09:32:49;6.32;72.99
70534;SHT31;58088;51.186;17.130;2022-12-08T09:35:15;6.38;72.57
70534;SHT31;58088;51.186;17.130;2022-12-08T09:37:42;6.39;72.29
70534;SHT31;58088;51.186;17.130;2022-12-08T09:40:09;6.45;72.09
70534;SHT31;58088;51.186;17.130;2022-12-08T09:45:25;6.58;72.11
70534;SHT31;58088;51.186;17.130;2022-12-08T09:48:06;6.61;71.96
70534;SHT31;58088;51.186;17.130;2022-12-08T09:50:55;6.65;71.81
70534;SHT31;58088;51.186;17.130;2022-12-08T09:53:28;6.68;71.69
70534;SHT31;58088;51.186;17.130;2022-12-08T09:56:14;6.67;71.49
70534;SHT31;58088;51.186;17.130;2022-12-08T09:58:55;6.68;71.34
70534;SHT31;58088;51.186;17.130;2022-12-08T10:01:32;6.67;71.11
70534;SHT31;58088;51.186;17.130;2022-12-08T10:04:02;6.68;70.93
70534;SHT31;58088;51.186;17.130;2022-12-08T10:06:40;6.70;70.84
70534;SHT31;58088;51.186;17.130;2022-12-08T10:12:37;6.76;70.54
70534;SHT31;58088;51.186;17.130;2022-12-08T10:15:39;6.76;70.46
70534;SHT31;58088;51.186;17.130;2022-12-08T10:18:40;6.78;70.58
70534;SHT31;58088;51.186;17.130;2022-12-08T10:21:17;6.75;70.43
70534;SHT31;58088;51.186;17.130;2022-12-08T10:23:51;6.76;70.23
70534;SHT31;58088;51.186;17.130;2022-12-08T10:26:28;6.79;70.28
70534;SHT31;58088;51.186;17.130;2022-12-08T10:28:57;6.74;69.97
70534;SHT31;58088;51.186;17.130;2022-12-08T10:31:28;6.72;69.64
70534;SHT31;58088;51.186;17.130;2022-12-08T10:33:57;6.72;69.39
70534;SHT31;58088;51.186;17.130;2022-12-08T10:39:29;6.73;69.36
70534;SHT31;58088;51.186;17.130;2022-12-08T10:45:02;6.75;69.33
70534;SHT31;58088;51.186;17.130;2022-12-08T10:47:56;6.80;69.26
70534;SHT31;58088;51.186;17.130;2022-12-08T10:50:32;6.83;69.25
70534;SHT31;58088;51.186;17.130;2022-12-08T10:55:39;6.92;69.16
70534;SHT31;58088;51.186;17.130;2022-12-08T10:58:21;6.95;69.27
70534;SHT31;58088;51.186;17.130;2022-12-08T11:00:58;6.95;68.87
70534;SHT31;58088;51.186;17.130;2022-12-08T11:06:36;6.95;68.67
70534;SHT31;58088;51.186;17.130;2022-12-08T11:14:24;6.93;68.10
70534;SHT31;58088;51.186;17.130;2022-12-08T11:19:44;6.97;68.14
70534;SHT31;58088;51.186;17.130;2022-12-08T11:22:21;7.00;68.22
70534;SHT31;58088;51.186;17.130;2022-12-08T11:25:19;7.01;68.00
70534;SHT31;58088;51.186;17.130;2022-12-08T11:27:55;6.95;67.81
70534;SHT31;58088;51.186;17.130;2022-12-08T11:30:27;6.94;67.80
70534;SHT31;58088;51.186;17.130;2022-12-08T11:33:02;6.98;67.67
70534;SHT31;58088;51.186;17.130;2022-12-08T11:35:40;7.01;67.46
70534;SHT31;58088;51.186;17.130;2022-12-08T11:38:12;7.03;67.45
70534;SHT31;58088;51.186;17.130;2022-12-08T11:40:53;7.03;67.59
70534;SHT31;58088;51.186;17.130;2022-12-08T11:46:20;7.07;67.37
70534;SHT31;58088;51.186;17.130;2022-12-08T11:49:02;7.12;67.35
70534;SHT31;58088;51.186;17.130;2022-12-08T11:51:43;7.14;67.26
70534;SHT31;58088;51.186;17.130;2022-12-08T11:56:52;7.11;67.13
70534;SHT31;58088;51.186;17.130;2022-12-08T11:59:27;7.12;67.30
70534;SHT31;58088;51.186;17.130;2022-12-08T12:01:59;7.15;67.45
70534;SHT31;58088;51.186;17.130;2022-12-08T12:04:39;7.18;67.46
70534;SHT31;58088;51.186;17.130;2022-12-08T12:13:28;7.20;67.04
70534;SHT31;58088;51.186;17.130;2022-12-08T12:19:17;7.31;67.21
70534;SHT31;58088;51.186;17.130;2022-12-08T12:21:50;7.40;67.22
70534;SHT31;58088;51.186;17.130;2022-12-08T12:24:39;7.49;67.35
70534;SHT31;58088;51.186;17.130;2022-12-08T12:29:43;7.56;66.66
70534;SHT31;58088;51.186;17.130;2022-12-08T12:32:15;7.59;66.60
70534;SHT31;58088;51.186;17.130;2022-12-08T12:35:00;7.52;66.26
70534;SHT31;58088;51.186;17.130;2022-12-08T12:37:34;7.43;65.79
70534;SHT31;58088;51.186;17.130;2022-12-08T12:40:05;7.37;65.81
70534;SHT31;58088;51.186;17.130;2022-12-08T12:47:47;7.32;65.95
70534;SHT31;58088;51.186;17.130;2022-12-08T12:53:02;7.30;65.94
70534;SHT31;58088;51.186;17.130;2022-12-08T12:55:56;7.25;65.98
70534;SHT31;58088;51.186;17.130;2022-12-08T13:03:36;7.19;66.13
70534;SHT31;58088;51.186;17.130;2022-12-08T13:06:20;7.19;66.29
70534;SHT31;58088;51.186;17.130;2022-12-08T13:08:57;7.21;66.26
70534;SHT31;58088;51.186;17.130;2022-12-08T13:11:24;7.22;66.32
70534;SHT31;58088;51.186;17.130;2022-12-08T13:14:01;7.20;66.35
70534;SHT31;58088;51.186;17.130;2022-12-08T13:16:30;7.21;66.23
70534;SHT31;58088;51.186;17.130;2022-12-08T13:18:59;7.20;66.07
70534;SHT31;58088;51.186;17.130;2022-12-08T13:21:38;7.15;65.90
70534;SHT31;58088;51.186;17.130;2022-12-08T13:24:23;7.13;66.01
70534;SHT31;58088;51.186;17.130;2022-12-08T13:29:29;7.02;65.94
70534;SHT31;58088;51.186;17.130;2022-12-08T13:31:58;6.99;65.92
70534;SHT31;58088;51.186;17.130;2022-12-08T13:34:33;6.95;65.91
70534;SHT31;58088;51.186;17.130;2022-12-08T13:40:04;6.88;66.07
70534;SHT31;58088;51.186;17.130;2022-12-08T13:45:34;6.75;66.27
70534;SHT31;58088;51.186;17.130;2022-12-08T13:50:57;6.67;66.33
70534;SHT31;58088;51.186;17.130;2022-12-08T13:53:36;6.59;66.37
70534;SHT31;58088;51.186;17.130;2022-12-08T13:56:06;6.53;66.45
70534;SHT31;58088;51.186;17.130;2022-12-08T13:58:37;6.49;66.47
70534;SHT31;58088;51.186;17.130;2022-12-08T14:01:13;6.45;66.51
70534;SHT31;58088;51.186;17.130;2022-12-08T14:03:52;6.40;66.51
70534;SHT31;58088;51.186;17.130;2022-12-08T14:06:25;6.38;66.66
70534;SHT31;58088;51.186;17.130;2022-12-08T14:08:59;6.37;66.73
70534;SHT31;58088;51.186;17.130;2022-12-08T14:11:34;6.33;66.74
70534;SHT31;58088;51.186;17.130;2022-12-08T14:17:27;6.26;66.89
70534;SHT31;58088;51.186;17.130;2022-12-08T14:20:00;6.20;66.87
70534;SHT31;58088;51.186;17.130;2022-12-08T14:22:31;6.14;66.91
70534;SHT31;58088;51.186;17.130;2022-12-08T14:25:04;6.11;67.00
70534;SHT31;58088;51.186;17.130;2022-12-08T14:27:38;6.09;67.00
70534;SHT31;58088;51.186;17.130;2022-12-08T14:30:05;6.05;67.00
70534;SHT31;58088;51.186;17.130;2022-12-08T14:32:49;6.02;67.00
70534;SHT31;58088;51.186;17.130;2022-12-08T14:38:17;5.93;67.12
70534;SHT31;58088;51.186;17.130;2022-12-08T14:40:47;5.91;67.20
70534;SHT31;58088;51.186;17.130;2022-12-08T14:43:36;5.87;67.20
70534;SHT31;58088;51.186;17.130;2022-12-08T14:46:03;5.83;67.22
70534;SHT31;58088;51.186;17.130;2022-12-08T14:48:45;5.79;67.22
70534;SHT31;58088;51.186;17.130;2022-12-08T14:56:52;5.66;67.45
70534;SHT31;58088;51.186;17.130;2022-12-08T15:04:53;5.58;67.70
70534;SHT31;58088;51.186;17.130;2022-12-08T15:07:43;5.52;67.81
70534;SHT31;58088;51.186;17.130;2022-12-08T15:18:35;5.45;68.20
70534;SHT31;58088;51.186;17.130;2022-12-08T15:21:06;5.44;68.23
70534;SHT31;58088;51.186;17.130;2022-12-08T15:23:41;5.39;68.30
70534;SHT31;58088;51.186;17.130;2022-12-08T15:26:24;5.32;68.35
70534;SHT31;58088;51.186;17.130;2022-12-08T15:28:53;5.26;68.52
70534;SHT31;58088;51.186;17.130;2022-12-08T15:31:20;5.21;68.65
70534;SHT31;58088;51.186;17.130;2022-12-08T15:33:47;5.15;68.78
70534;SHT31;58088;51.186;17.130;2022-12-08T15:36:13;5.12;68.89
70534;SHT31;58088;51.186;17.130;2022-12-08T15:38:40;5.10;68.98
70534;SHT31;58088;51.186;17.130;2022-12-08T15:41:07;5.09;69.01
70534;SHT31;58088;51.186;17.130;2022-12-08T15:43:34;5.08;69.09
70534;SHT31;58088;51.186;17.130;2022-12-08T15:46:00;5.08;69.21
70534;SHT31;58088;51.186;17.130;2022-12-08T15:48:27;5.10;69.28
70534;SHT31;58088;51.186;17.130;2022-12-08T15:50:55;5.09;69.34
70534;SHT31;58088;51.186;17.130;2022-12-08T15:53:22;5.08;69.43
70534;SHT31;58088;51.186;17.130;2022-12-08T15:55:48;5.09;69.52
70534;SHT31;58088;51.186;17.130;2022-12-08T15:58:22;5.09;69.60
70534;SHT31;58088;51.186;17.130;2022-12-08T16:00:50;5.10;69.73
70534;SHT31;58088;51.186;17.130;2022-12-08T16:03:18;5.12;69.80
70534;SHT31;58088;51.186;17.130;2022-12-08T16:05:45;5.13;69.86
70534;SHT31;58088;51.186;17.130;2022-12-08T16:08:13;5.12;69.88
70534;SHT31;58088;51.186;17.130;2022-12-08T16:10:40;5.11;69.88
70534;SHT31;58088;51.186;17.130;2022-12-08T16:13:13;5.09;69.87
70534;SHT31;58088;51.186;17.130;2022-12-08T16:16:04;5.10;69.87
70534;SHT31;58088;51.186;17.130;2022-12-08T16:18:34;5.10;69.90
70534;SHT31;58088;51.186;17.130;2022-12-08T16:21:03;5.11;69.95
70534;SHT31;58088;51.186;17.130;2022-12-08T16:23:30;5.09;70.00
70534;SHT31;58088;51.186;17.130;2022-12-08T16:25:57;5.07;70.07
70534;SHT31;58088;51.186;17.130;2022-12-08T16:28:25;5.06;70.16
70534;SHT31;58088;51.186;17.130;2022-12-08T16:30:51;5.06;70.21
70534;SHT31;58088;51.186;17.130;2022-12-08T16:33:18;5.06;70.23
70534;SHT31;58088;51.186;17.130;2022-12-08T16:35:45;5.05;70.30
70534;SHT31;58088;51.186;17.130;2022-12-08T16:38:12;5.05;70.36
70534;SHT31;58088;51.186;17.130;2022-12-08T16:40:46;5.03;70.35
70534;SHT31;58088;51.186;17.130;2022-12-08T16:43:32;4.98;70.35
70534;SHT31;58088;51.186;17.130;2022-12-08T16:46:00;4.95;70.40
70534;SHT31;58088;51.186;17.130;2022-12-08T16:48:27;4.91;70.43
70534;SHT31;58088;51.186;17.130;2022-12-08T16:50:54;4.88;70.49
70534;SHT31;58088;51.186;17.130;2022-12-08T16:53:21;4.86;70.43
70534;SHT31;58088;51.186;17.130;2022-12-08T16:55:48;4.84;70.46
70534;SHT31;58088;51.186;17.130;2022-12-08T16:58:15;4.81;70.40
70534;SHT31;58088;51.186;17.130;2022-12-08T17:00:43;4.79;70.40
70534;SHT31;58088;51.186;17.130;2022-12-08T17:03:09;4.76;70.40
70534;SHT31;58088;51.186;17.130;2022-12-08T17:05:39;4.72;70.40
70534;SHT31;58088;51.186;17.130;2022-12-08T17:08:06;4.69;70.40
70534;SHT31;58088;51.186;17.130;2022-12-08T17:10:32;4.66;70.42
70534;SHT31;58088;51.186;17.130;2022-12-08T17:13:01;4.61;70.50
70534;SHT31;58088;51.186;17.130;2022-12-08T17:15:28;4.57;70.54
70534;SHT31;58088;51.186;17.130;2022-12-08T17:17:54;4.57;70.64
70534;SHT31;58088;51.186;17.130;2022-12-08T17:20:21;4.59;70.66
70534;SHT31;58088;51.186;17.130;2022-12-08T17:22:53;4.61;70.71
70534;SHT31;58088;51.186;17.130;2022-12-08T17:25:22;4.63;70.73
70534;SHT31;58088;51.186;17.130;2022-12-08T17:27:49;4.63;70.76
70534;SHT31;58088;51.186;17.130;2022-12-08T17:30:16;4.63;70.80
70534;SHT31;58088;51.186;17.130;2022-12-08T17:32:45;4.64;70.81
70534;SHT31;58088;51.186;17.130;2022-12-08T17:35:13;4.63;70.80
70534;SHT31;58088;51.186;17.130;2022-12-08T17:37:41;4.62;70.80
70534;SHT31;58088;51.186;17.130;2022-12-08T17:40:08;4.62;70.80
70534;SHT31;58088;51.186;17.130;2022-12-08T17:42:35;4.63;70.80
70534;SHT31;58088;51.186;17.130;2022-12-08T17:45:03;4.61;70.80
70534;SHT31;58088;51.186;17.130;2022-12-08T17:47:31;4.61;70.80
70534;SHT31;58088;51.186;17.130;2022-12-08T17:49:59;4.62;70.78
70534;SHT31;58088;51.186;17.130;2022-12-08T17:52:25;4.61;70.73
70534;SHT31;58088;51.186;17.130;2022-12-08T17:54:52;4.58;70.79
70534;SHT31;58088;51.186;17.130;2022-12-08T17:57:18;4.55;70.80
70534;SHT31;58088;51.186;17.130;2022-12-08T17:59:45;4.53;70.80
70534;SHT31;58088;51.186;17.130;2022-12-08T18:02:12;4.48;70.83